createdAt,value
2023-10-17T07:13:43.896Z,21.99
2023-10-17T07:14:44.206Z,22.02
2023-10-17T07:15:44.484Z,22.02
2023-10-17T07:16:44.778Z,22.02
2023-10-17T07:17:45.109Z,22.03
2023-10-17T07:18:46.384Z,22.03
2023-10-17T07:19:45.715Z,22.05
2023-10-17T07:20:45.815Z,22.05
2023-10-17T07:21:46.101Z,22.05
2023-10-17T07:22:46.433Z,22.07
2023-10-17T07:23:46.557Z,22.07
2023-10-17T07:24:46.836Z,22.09
2023-10-17T07:25:47.087Z,22.09
2023-10-17T07:26:47.363Z,22.12
2023-10-17T07:27:47.817Z,22.14
2023-10-17T07:28:47.912Z,22.15
2023-10-17T07:29:48.137Z,22.17
2023-10-17T07:30:48.447Z,22.15
2023-10-17T07:31:48.644Z,22.17
2023-10-17T07:32:48.964Z,22.17
2023-10-17T07:33:49.191Z,22.17
2023-10-17T07:34:49.428Z,22.18
2023-10-17T07:35:49.693Z,22.18
2023-10-17T07:36:49.984Z,22.18
2023-10-17T07:37:50.264Z,22.20
2023-10-17T07:38:50.500Z,22.20
2023-10-17T07:39:50.762Z,22.20
2023-10-17T07:40:51.019Z,22.22
2023-10-17T07:41:51.278Z,22.22
2023-10-17T07:42:51.588Z,22.24
2023-10-17T07:43:51.816Z,22.25
2023-10-17T07:44:52.088Z,22.18
2023-10-17T07:45:52.344Z,22.06
2023-10-17T07:46:52.664Z,21.86
2023-10-17T07:47:53.047Z,21.64
2023-10-17T07:48:53.103Z,21.38
2023-10-17T07:49:53.312Z,21.09
2023-10-17T07:50:53.568Z,20.80
2023-10-17T07:51:53.812Z,20.57
2023-10-17T07:52:54.071Z,20.31
2023-10-17T07:53:54.311Z,20.11
2023-10-17T07:54:54.571Z,19.91
2023-10-17T07:55:54.810Z,19.71
2023-10-17T07:56:55.093Z,19.54
2023-10-17T07:57:55.319Z,19.41
2023-10-17T07:58:55.587Z,19.26
2023-10-17T07:59:55.840Z,19.16
2023-10-17T08:00:56.159Z,19.08
2023-10-17T08:01:56.284Z,19.06
2023-10-17T08:02:56.582Z,19.06
2023-10-17T08:03:57.430Z,19.13
2023-10-17T08:04:56.907Z,19.21
2023-10-17T08:05:57.146Z,19.31
2023-10-17T08:06:57.411Z,19.41
2023-10-17T08:07:57.720Z,19.55
2023-10-17T08:08:57.967Z,19.68
2023-10-17T08:09:58.238Z,19.80
2023-10-17T08:10:58.471Z,19.95
2023-10-17T08:11:58.732Z,20.06
2023-10-17T08:12:59.004Z,20.17
2023-10-17T08:13:59.257Z,20.31
2023-10-17T08:14:59.576Z,20.41
2023-10-17T08:15:59.728Z,20.52
2023-10-17T08:17:00.004Z,20.61
2023-10-17T08:18:00.228Z,20.70
2023-10-17T08:19:00.534Z,20.79
2023-10-17T08:20:00.641Z,20.87
2023-10-17T08:21:00.907Z,20.94
2023-10-17T08:22:01.727Z,21.03
2023-10-17T08:23:01.417Z,21.09
2023-10-17T08:24:01.684Z,21.14
2023-10-17T08:25:01.961Z,21.22
2023-10-17T08:26:02.265Z,21.28
2023-10-17T08:27:02.496Z,21.32
2023-10-17T08:28:02.827Z,21.37
2023-10-17T08:29:03.060Z,21.44
2023-10-17T08:30:03.305Z,21.50
2023-10-17T08:31:03.609Z,21.52
2023-10-17T08:32:03.896Z,21.58
2023-10-17T08:33:04.179Z,21.62
2023-10-17T08:34:04.387Z,21.65
2023-10-17T08:35:04.644Z,21.71
2023-10-17T08:36:04.883Z,21.72
2023-10-17T08:37:05.175Z,21.77
2023-10-17T08:38:05.532Z,21.82
2023-10-17T08:39:05.665Z,21.84
2023-10-17T08:40:05.915Z,21.88
2023-10-17T08:41:06.195Z,21.92
2023-10-17T08:42:06.407Z,21.94
2023-10-17T08:43:06.630Z,21.98
2023-10-17T08:44:06.865Z,22.02
2023-10-17T08:45:07.155Z,22.05
2023-10-17T08:46:07.380Z,22.06
2023-10-17T08:47:07.631Z,22.09
2023-10-17T08:48:08.077Z,22.10
2023-10-17T08:49:08.071Z,22.14
2023-10-17T08:50:08.305Z,22.17
2023-10-17T08:51:18.315Z,22.20
2023-10-17T08:52:09.820Z,22.24
2023-10-17T08:53:08.982Z,22.25
2023-10-17T08:54:09.215Z,22.30
2023-10-17T08:55:09.450Z,22.31
2023-10-17T08:56:09.692Z,22.35
2023-10-17T08:57:09.959Z,22.36
2023-10-17T08:58:10.171Z,22.39
2023-10-17T08:59:10.429Z,22.42
2023-10-17T09:00:10.597Z,22.43
2023-10-17T09:01:10.827Z,22.47
2023-10-17T09:02:10.931Z,22.51
2023-10-17T09:03:11.180Z,22.51
2023-10-17T09:04:11.396Z,22.55
2023-10-17T09:05:11.621Z,22.57
2023-10-17T09:06:11.941Z,22.58
2023-10-17T09:07:12.152Z,22.61
2023-10-17T09:08:12.400Z,22.62
2023-10-17T09:09:12.702Z,22.65
2023-10-17T09:10:12.896Z,22.67
2023-10-17T09:11:13.153Z,22.68
2023-10-17T09:12:13.462Z,22.72
2023-10-17T09:13:13.588Z,22.73
2023-10-17T09:14:13.827Z,22.76
2023-10-17T09:15:14.174Z,22.77
2023-10-17T09:16:14.270Z,22.80
2023-10-17T09:17:17.202Z,22.79
2023-10-17T09:18:14.742Z,22.80
2023-10-17T09:19:14.976Z,22.82
2023-10-17T09:20:15.197Z,22.82
2023-10-17T09:21:15.457Z,22.83
2023-10-17T09:22:15.666Z,22.85
2023-10-17T09:23:15.905Z,22.86
2023-10-17T09:24:16.162Z,22.86
2023-10-17T09:25:16.376Z,22.88
2023-10-17T09:26:16.608Z,22.88
2023-10-17T09:27:17.728Z,22.90
2023-10-17T09:28:16.998Z,22.91
2023-10-17T09:29:17.233Z,22.91
2023-10-17T09:30:17.529Z,22.92
2023-10-17T09:31:17.734Z,22.94
2023-10-17T09:32:17.842Z,22.95
2023-10-17T09:33:18.219Z,22.95
2023-10-17T09:34:18.329Z,22.98
2023-10-17T09:35:18.593Z,23.00
2023-10-17T09:36:19.468Z,23.01
2023-10-17T09:37:19.127Z,23.01
2023-10-17T09:38:19.233Z,23.02
2023-10-17T09:39:32.043Z,23.05
2023-10-17T09:40:20.693Z,23.04
2023-10-17T09:41:20.501Z,23.05
2023-10-17T09:42:20.236Z,23.07
2023-10-17T09:43:20.428Z,23.09
2023-10-17T09:44:20.642Z,23.10
2023-10-17T09:45:34.227Z,23.12
2023-10-17T09:46:22.162Z,23.13
2023-10-17T09:47:21.376Z,23.13
2023-10-17T09:48:21.682Z,23.15
2023-10-17T09:49:21.899Z,23.15
2023-10-17T09:50:21.887Z,23.16
2023-10-17T09:51:22.585Z,23.17
2023-10-17T09:52:22.393Z,23.19
2023-10-17T09:53:22.766Z,23.17
2023-10-17T09:54:23.192Z,23.20
2023-10-17T09:55:23.544Z,23.20
2023-10-17T09:56:23.971Z,23.22
2023-10-17T09:57:23.281Z,23.23
2023-10-17T09:58:23.537Z,23.23
2023-10-17T09:59:23.741Z,23.25
2023-10-17T10:00:23.977Z,23.25
2023-10-17T10:01:24.238Z,23.28
2023-10-17T10:02:24.444Z,23.27
2023-10-17T10:03:24.744Z,23.28
2023-10-17T10:04:27.761Z,23.28
2023-10-17T10:05:25.236Z,23.31
